Terminal Aerodrome Forecast
Issued by NWS Greer, SC

Home | Current Version | Previous Version | Text Only | Print | Product List | Glossary On
Versions: 1 2 3 4 5 6 7 8 9 10 11 12 13 14 15 16
000
FTUS42 KGSP 260540
TAFGSP
TAF
KGSP 260540Z 2606/2706 22005KT P6SM SCT090 BKN120
      TEMPO 2609/2612 23003KT 5SM BR FEW250
     FM261200 23003KT P6SM SCT060 SCT150
     FM261700 22007KT P6SM BKN060 PROB30 2621/2701 4SM -TSRA
      BKN050CB BKN060
     FM270200 19003KT P6SM SCT050=

USA.gov is the U.S. government's official web portal to all federal, state and local government web resources and services.